Time;durP1;ratioP1;P1;durP2;ratioP2;P2;SDS_P1;SDS_P2;PMS_P1;PMS_P2;Temp;Humidity;BMP_temperature;BMP_pressure;BME280_temperature;BME280_humidity;BME280_pressure;Samples;Min_cycle;Max_cycle;Signal;HPM_P1;HPM_P2
2024/04/15 00:02:05;;;;;;;8.43;5.40;;;15.70;98.00;;;;;;5414321;26;20559;-64
2024/04/15 00:04:31;;;;;;;8.10;5.23;;;15.90;98.00;;;;;;5383434;26;21066;-64
2024/04/15 00:07:00;;;;;;;8.83;5.00;;;16.00;98.00;;;;;;5414111;26;20458;-63
2024/04/15 00:09:26;;;;;;;9.30;5.13;;;16.00;98.00;;;;;;5413990;26;20466;-63
2024/04/15 00:11:55;;;;;;;10.00;5.23;;;16.00;98.00;;;;;;5413784;26;20478;-64
2024/04/15 00:14:24;;;;;;;9.17;6.20;;;16.20;98.00;;;;;;5413843;26;20509;-63
2024/04/15 00:16:53;;;;;;;8.63;5.57;;;16.30;98.00;;;;;;5410605;26;21035;-63
2024/04/15 00:19:19;;;;;;;8.90;5.37;;;16.20;98.00;;;;;;5383573;26;20455;-63
2024/04/15 00:21:50;;;;;;;10.43;5.73;;;15.90;98.00;;;;;;5383495;26;20497;-63
2024/04/15 00:24:16;;;;;;;8.10;5.20;;;15.60;98.00;;;;;;5414061;26;20604;-64
2024/04/15 00:26:47;;;;;;;8.60;5.43;;;15.40;98.00;;;;;;5413996;26;21074;-65
2024/04/15 00:29:13;;;;;;;10.40;5.70;;;15.40;98.00;;;;;;5413583;26;20455;-63
2024/04/15 00:31:45;;;;;;;10.83;5.93;;;15.30;98.00;;;;;;5382711;26;20478;-63
2024/04/15 00:34:11;;;;;;;9.70;5.60;;;15.30;98.00;;;;;;5413190;26;20458;-64
2024/04/15 00:36:39;;;;;;;7.13;4.97;;;15.30;98.00;;;;;;5413834;26;20577;-63
2024/04/15 00:39:06;;;;;;;9.10;5.27;;;15.50;98.00;;;;;;5413762;26;20462;-63
2024/04/15 00:41:34;;;;;;;8.60;5.53;;;15.60;98.00;;;;;;5412573;26;20466;-62
2024/04/15 00:44:01;;;;;;;8.60;5.70;;;15.60;98.00;;;;;;5413270;26;20470;-63
2024/04/15 00:46:30;;;;;;;11.33;5.73;;;15.40;98.00;;;;;;5413448;26;20579;-64
2024/04/15 00:49:01;;;;;;;10.20;5.43;;;15.40;98.00;;;;;;5413900;26;20511;-62
2024/04/15 00:51:31;;;;;;;9.00;5.77;;;15.50;98.00;;;;;;5413542;26;20807;-63
2024/04/15 00:53:58;;;;;;;8.17;5.33;;;15.50;98.00;;;;;;5413588;26;20831;-66
2024/04/15 00:56:28;;;;;;;8.80;5.57;;;15.50;98.00;;;;;;5413676;26;20466;-62
2024/04/15 00:58:55;;;;;;;9.80;5.83;;;15.40;98.00;;;;;;5413381;26;20458;-63
2024/04/15 01:01:25;;;;;;;6.80;4.67;;;15.30;98.00;;;;;;5413515;26;20522;-63
2024/04/15 01:03:54;;;;;;;8.10;5.40;;;15.40;98.00;;;;;;5413390;26;20512;-64
2024/04/15 01:06:25;;;;;;;8.53;5.83;;;15.30;98.00;;;;;;5412695;26;20972;-63
2024/04/15 01:08:51;;;;;;;8.00;5.40;;;15.20;98.00;;;;;;5413214;26;21075;-65
2024/04/15 01:11:20;;;;;;;7.80;5.00;;;15.30;98.00;;;;;;5382252;26;20459;-63
2024/04/15 01:13:49;;;;;;;8.57;5.47;;;15.30;98.00;;;;;;5413171;26;20470;-63
2024/04/15 01:16:15;;;;;;;7.43;5.03;;;15.50;98.00;;;;;;5412913;26;20454;-64
2024/04/15 01:18:44;;;;;;;10.80;5.00;;;15.50;98.00;;;;;;5412934;26;20789;-64
2024/04/15 01:21:10;;;;;;;14.67;4.70;;;15.60;98.00;;;;;;5411480;26;20514;-63
2024/04/15 01:23:48;;;;;;;6.93;4.80;;;15.80;98.00;;;;;;5412999;26;20540;-63
2024/04/15 01:26:14;;;;;;;7.73;4.93;;;15.90;98.00;;;;;;5412902;26;20499;-62
2024/04/15 01:28:43;;;;;;;9.90;5.40;;;16.00;98.00;;;;;;5412486;26;20564;-63
2024/04/15 01:31:11;;;;;;;7.43;4.80;;;16.10;98.00;;;;;;5412579;26;20509;-64
2024/04/15 01:33:40;;;;;;;7.43;4.43;;;16.00;98.00;;;;;;5412756;26;20575;-65
2024/04/15 01:36:07;;;;;;;8.43;4.97;;;15.90;98.00;;;;;;5380624;26;20824;-63
2024/04/15 01:38:37;;;;;;;7.67;4.70;;;15.90;98.00;;;;;;5381138;26;20458;-63
2024/04/15 01:41:06;;;;;;;9.77;4.80;;;15.80;98.00;;;;;;5412457;26;20530;-63
2024/04/15 01:43:34;;;;;;;10.10;5.40;;;15.70;98.00;;;;;;5412497;26;20595;-64
2024/04/15 01:46:01;;;;;;;8.37;4.97;;;15.70;98.00;;;;;;5412063;26;20470;-64
2024/04/15 01:48:30;;;;;;;7.37;4.83;;;15.80;98.00;;;;;;5412263;26;20534;-63
2024/04/15 01:50:56;;;;;;;7.40;4.60;;;15.90;98.00;;;;;;5412422;26;20458;-64
2024/04/15 01:53:26;;;;;;;8.23;5.30;;;15.90;98.00;;;;;;5413524;26;20572;-64
2024/04/15 01:55:53;;;;;;;7.53;5.00;;;15.90;98.00;;;;;;5416199;26;20463;-63
2024/04/15 01:58:24;;;;;;;6.90;4.80;;;15.90;98.00;;;;;;5414742;26;20462;-64
2024/04/15 02:00:50;;;;;;;7.30;4.73;;;15.90;98.00;;;;;;5384732;26;21191;-63
2024/04/15 02:03:28;;;;;;;5.77;4.40;;;16.10;98.00;;;;;;5416025;26;20458;-64
2024/04/15 02:05:54;;;;;;;6.17;4.20;;;16.10;98.00;;;;;;5415765;26;20481;-63
2024/04/15 02:08:24;;;;;;;8.63;4.90;;;16.00;98.00;;;;;;5415785;26;20562;-64
2024/04/15 02:10:50;;;;;;;7.40;4.70;;;15.90;98.00;;;;;;5416132;26;20527;-63
2024/04/15 02:13:18;;;;;;;6.90;4.90;;;15.90;98.00;;;;;;5416078;26;21162;-63
2024/04/15 02:15:48;;;;;;;12.03;4.80;;;15.80;98.00;;;;;;5415921;26;20510;-64
2024/04/15 02:18:16;;;;;;;6.63;4.23;;;15.80;98.00;;;;;;5415638;26;20536;-63
2024/04/15 02:20:43;;;;;;;8.00;4.80;;;15.80;98.00;;;;;;5415377;26;20462;-65
2024/04/15 02:23:12;;;;;;;7.20;4.50;;;15.70;98.00;;;;;;5415735;26;20466;-63
2024/04/15 02:25:38;;;;;;;6.27;4.17;;;15.70;98.00;;;;;;5415662;26;20509;-63
2024/04/15 02:28:07;;;;;;;6.40;4.07;;;15.80;98.00;;;;;;5415124;26;21240;-63
2024/04/15 02:30:35;;;;;;;6.20;4.13;;;15.90;98.00;;;;;;5385251;26;20462;-63
2024/04/15 02:33:07;;;;;;;4.73;3.60;;;16.00;98.00;;;;;;5415363;26;20508;-63
2024/04/15 02:35:33;;;;;;;6.10;3.87;;;16.00;98.00;;;;;;5415510;26;20470;-63
2024/04/15 02:38:02;;;;;;;5.20;3.73;;;16.10;98.00;;;;;;5414940;26;20802;-64
2024/04/15 02:40:28;;;;;;;4.83;3.40;;;16.20;98.00;;;;;;5415483;26;20466;-63
2024/04/15 02:42:56;;;;;;;6.27;3.70;;;16.20;98.00;;;;;;5415782;26;20517;-63
2024/04/15 02:45:22;;;;;;;4.33;3.30;;;16.20;98.00;;;;;;5415607;26;20451;-63
2024/04/15 02:47:52;;;;;;;5.00;3.37;;;16.20;98.00;;;;;;5414805;26;20501;-63
2024/04/15 02:50:21;;;;;;;6.07;3.70;;;16.30;98.00;;;;;;5415844;26;20459;-63
2024/04/15 02:52:50;;;;;;;4.70;3.40;;;16.20;98.00;;;;;;5413796;26;20576;-64
2024/04/15 02:55:16;;;;;;;6.67;3.40;;;16.20;98.00;;;;;;5383754;26;20530;-63
2024/04/15 02:57:45;;;;;;;4.23;3.37;;;16.20;98.00;;;;;;5414938;26;20450;-63
2024/04/15 03:00:11;;;;;;;6.83;3.87;;;16.20;98.00;;;;;;5384692;26;20519;-65
2024/04/15 03:02:40;;;;;;;4.80;3.20;;;16.30;98.00;;;;;;5414337;26;20525;-62
2024/04/15 03:05:06;;;;;;;5.60;3.50;;;16.20;98.00;;;;;;5414474;26;21020;-63
2024/04/15 03:07:38;;;;;;;4.40;3.40;;;16.20;98.00;;;;;;5415070;26;20551;-63
2024/04/15 03:10:04;;;;;;;5.10;3.60;;;16.10;98.00;;;;;;5414871;26;20494;-63
2024/04/15 03:12:33;;;;;;;5.63;3.33;;;16.10;98.00;;;;;;5415061;26;20526;-63
2024/04/15 03:14:59;;;;;;;6.63;3.60;;;16.20;98.00;;;;;;5415018;26;20459;-65
2024/04/15 03:17:28;;;;;;;5.53;3.37;;;16.20;98.00;;;;;;5382979;26;20508;-64
2024/04/15 03:19:56;;;;;;;4.40;3.10;;;16.30;98.00;;;;;;5414779;26;21021;-62
2024/04/15 03:22:24;;;;;;;4.73;3.63;;;16.30;98.00;;;;;;5384047;26;20997;-63
2024/04/15 03:24:53;;;;;;;5.03;3.17;;;16.20;98.00;;;;;;5415129;26;20451;-62
2024/04/15 03:27:22;;;;;;;5.23;3.30;;;16.30;98.00;;;;;;5414851;26;20501;-63
2024/04/15 03:29:48;;;;;;;8.57;3.70;;;16.40;98.00;;;;;;5414612;26;20529;-63
2024/04/15 03:32:17;;;;;;;7.10;4.47;;;16.30;98.00;;;;;;5413950;26;20505;-63
2024/04/15 03:34:43;;;;;;;6.83;4.20;;;16.20;98.00;;;;;;5414490;26;20466;-64
2024/04/15 03:37:11;;;;;;;7.00;4.50;;;16.10;98.00;;;;;;5413022;26;20505;-64
2024/04/15 03:39:40;;;;;;;7.43;4.37;;;16.10;98.00;;;;;;5414528;26;20467;-63
2024/04/15 03:42:11;;;;;;;8.37;4.70;;;16.20;98.00;;;;;;5414470;26;20932;-62
2024/04/15 03:44:40;;;;;;;6.63;4.27;;;16.30;98.00;;;;;;5414766;26;21059;-62
2024/04/15 03:47:07;;;;;;;9.83;4.87;;;16.20;98.00;;;;;;5414370;26;20463;-63
2024/04/15 03:49:35;;;;;;;7.40;4.90;;;16.20;98.00;;;;;;5383380;26;20467;-63
2024/04/15 03:52:02;;;;;;;7.20;4.40;;;16.00;98.00;;;;;;5414559;26;20511;-63
2024/04/15 03:54:30;;;;;;;7.00;4.30;;;15.90;98.00;;;;;;5414623;26;20478;-65
2024/04/15 03:56:56;;;;;;;7.40;4.43;;;15.80;98.00;;;;;;5413992;26;20651;-64
2024/04/15 03:59:28;;;;;;;6.30;4.10;;;15.70;98.00;;;;;;5414406;26;20567;-63
2024/04/15 04:01:54;;;;;;;10.10;3.67;;;15.80;98.00;;;;;;5414264;26;21307;-63
2024/04/15 04:04:23;;;;;;;6.70;3.60;;;15.90;98.00;;;;;;5414136;26;20556;-63
2024/04/15 04:06:49;;;;;;;5.57;3.53;;;16.00;98.00;;;;;;5414368;26;20514;-63
2024/04/15 04:09:18;;;;;;;4.77;3.40;;;15.80;98.00;;;;;;5414108;26;20458;-65
2024/04/15 04:11:44;;;;;;;5.40;3.80;;;15.80;98.00;;;;;;5414413;26;20454;-62
2024/04/15 04:14:14;;;;;;;6.10;4.10;;;15.80;98.00;;;;;;5414192;26;20551;-63
2024/04/15 04:16:43;;;;;;;7.30;4.00;;;15.70;98.00;;;;;;5382328;26;20462;-63
2024/04/15 04:19:12;;;;;;;6.20;3.80;;;15.60;98.00;;;;;;5413613;26;20463;-64
2024/04/15 04:21:38;;;;;;;4.97;3.60;;;15.50;98.00;;;;;;5414229;26;20454;-63
2024/04/15 04:24:07;;;;;;;5.17;3.70;;;15.40;98.00;;;;;;5413945;26;20512;-63
2024/04/15 04:26:33;;;;;;;4.50;3.40;;;15.40;98.00;;;;;;5414020;26;21016;-63
2024/04/15 04:29:02;;;;;;;5.10;3.73;;;15.50;98.00;;;;;;5413767;26;21020;-63
2024/04/15 04:31:28;;;;;;;7.63;3.70;;;15.50;98.00;;;;;;5383082;26;21094;-63
2024/04/15 04:34:00;;;;;;;5.07;3.30;;;15.50;98.00;;;;;;5413873;26;20976;-62
2024/04/15 04:36:26;;;;;;;4.53;3.40;;;15.50;98.00;;;;;;5413833;26;20594;-62
2024/04/15 04:38:56;;;;;;;5.87;3.57;;;15.50;98.00;;;;;;5382739;26;20581;-64
2024/04/15 04:41:24;;;;;;;6.03;3.60;;;15.50;98.00;;;;;;5413548;26;20590;-62
2024/04/15 04:43:52;;;;;;;6.17;3.60;;;15.60;98.00;;;;;;5382377;26;20514;-64
2024/04/15 04:46:18;;;;;;;5.70;3.20;;;15.60;98.00;;;;;;5413150;26;20514;-63
2024/04/15 04:48:49;;;;;;;5.47;3.50;;;15.60;98.00;;;;;;5413584;26;20518;-63
2024/04/15 04:51:17;;;;;;;7.43;3.60;;;15.70;98.00;;;;;;5384736;26;20467;-64
2024/04/15 04:53:46;;;;;;;6.57;3.63;;;15.80;98.00;;;;;;5413831;26;20487;-63
2024/04/15 04:56:13;;;;;;;7.70;3.77;;;15.80;98.00;;;;;;5413882;26;20502;-62
2024/04/15 04:58:43;;;;;;;5.73;3.87;;;15.70;98.00;;;;;;5414497;26;20968;-63
2024/04/15 05:01:10;;;;;;;6.13;4.17;;;15.60;98.00;;;;;;5414343;26;20458;-63
2024/04/15 05:03:39;;;;;;;9.53;3.90;;;15.60;98.00;;;;;;5414035;26;20541;-63
2024/04/15 05:06:06;;;;;;;8.33;4.60;;;15.50;98.00;;;;;;5382269;26;20779;-64
2024/04/15 05:08:39;;;;;;;7.27;4.00;;;15.50;98.00;;;;;;5413915;26;20466;-63
2024/04/15 05:11:06;;;;;;;6.67;3.90;;;15.60;98.00;;;;;;5413974;26;20457;-63
2024/04/15 05:13:37;;;;;;;8.63;4.50;;;15.60;98.00;;;;;;5413737;26;20458;-63
2024/04/15 05:16:05;;;;;;;6.23;4.03;;;15.50;98.00;;;;;;5413424;26;20487;-63
2024/04/15 05:18:34;;;;;;;9.47;3.90;;;15.50;98.00;;;;;;5413314;26;20512;-62
2024/04/15 05:21:01;;;;;;;12.73;4.93;;;15.50;98.00;;;;;;5413533;26;20458;-63
2024/04/15 05:23:30;;;;;;;7.57;4.60;;;15.50;98.00;;;;;;5382687;26;20570;-63
2024/04/15 05:26:00;;;;;;;6.37;4.03;;;15.40;98.00;;;;;;5413867;26;20462;-63
2024/04/15 05:28:29;;;;;;;8.50;4.43;;;15.40;98.00;;;;;;5355955;26;20455;-64
2024/04/15 05:30:57;;;;;;;10.07;3.80;;;15.40;98.00;;;;;;5417432;26;20514;-63
2024/04/15 05:33:26;;;;;;;13.27;4.53;;;15.30;98.00;;;;;;5417302;26;21625;-63
2024/04/15 05:35:55;;;;;;;7.10;4.13;;;15.30;98.00;;;;;;5417442;26;20503;-65
2024/04/15 05:38:24;;;;;;;7.50;4.07;;;15.30;98.00;;;;;;5417437;26;20466;-63
2024/04/15 05:40:50;;;;;;;10.00;4.07;;;15.40;98.00;;;;;;5416336;26;20785;-64
2024/04/15 05:43:21;;;;;;;5.60;3.90;;;15.40;98.00;;;;;;5417465;26;20509;-64
2024/04/15 05:45:47;;;;;;;6.73;4.37;;;15.40;98.00;;;;;;5386305;26;20451;-63
2024/04/15 05:48:17;;;;;;;6.40;3.80;;;15.40;98.00;;;;;;5417130;26;20850;-63
2024/04/15 05:50:44;;;;;;;7.70;4.67;;;15.50;98.00;;;;;;5386423;26;20514;-63
2024/04/15 05:53:13;;;;;;;8.03;4.10;;;15.60;98.00;;;;;;5417468;26;20530;-64
2024/04/15 05:55:40;;;;;;;8.80;4.33;;;15.50;98.00;;;;;;5386296;26;20454;-63
2024/04/15 05:58:10;;;;;;;7.30;4.67;;;15.50;98.00;;;;;;5417119;26;20470;-61
2024/04/15 06:00:39;;;;;;;7.20;4.50;;;15.40;98.00;;;;;;5416913;26;20494;-59
2024/04/15 06:03:08;;;;;;;10.63;4.50;;;15.40;98.00;;;;;;5417143;26;20477;-60
2024/04/15 06:05:34;;;;;;;6.73;3.80;;;15.40;98.00;;;;;;5416886;26;21123;-60
2024/04/15 06:08:03;;;;;;;8.23;4.13;;;15.30;98.00;;;;;;5416871;26;21251;-59
2024/04/15 06:10:29;;;;;;;7.67;3.93;;;15.20;98.00;;;;;;5416904;26;20533;-61
2024/04/15 06:12:57;;;;;;;6.23;3.80;;;15.20;98.00;;;;;;5416838;26;20462;-61
2024/04/15 06:15:24;;;;;;;5.80;3.80;;;15.30;98.00;;;;;;5417108;26;20525;-60
2024/04/15 06:17:56;;;;;;;6.43;3.80;;;15.20;98.00;;;;;;5416937;26;20512;-60
2024/04/15 06:20:22;;;;;;;6.30;4.03;;;15.10;98.00;;;;;;5415976;26;20507;-60
2024/04/15 06:22:51;;;;;;;6.03;3.80;;;15.20;98.00;;;;;;5385840;26;20880;-61
2024/04/15 06:25:17;;;;;;;6.07;3.80;;;15.10;98.00;;;;;;5416122;26;20462;-62
2024/04/15 06:27:46;;;;;;;8.70;4.30;;;15.10;98.00;;;;;;5417176;26;20564;-63
2024/04/15 06:30:12;;;;;;;5.80;3.70;;;15.10;98.00;;;;;;5416551;26;20459;-60
2024/04/15 06:32:40;;;;;;;6.27;3.53;;;15.10;98.00;;;;;;5416753;26;20538;-59
2024/04/15 06:35:09;;;;;;;5.30;3.40;;;15.20;98.00;;;;;;5416469;26;21188;-60
2024/04/15 06:37:38;;;;;;;5.00;3.13;;;15.10;98.00;;;;;;5416316;26;20515;-59
2024/04/15 06:40:05;;;;;;;6.30;3.33;;;15.20;98.00;;;;;;5415448;26;20462;-59
2024/04/15 06:42:34;;;;;;;6.97;3.40;;;15.30;98.00;;;;;;5416129;26;20887;-62
2024/04/15 06:45:00;;;;;;;5.57;3.00;;;15.20;98.00;;;;;;5416284;26;20459;-60
2024/04/15 06:47:29;;;;;;;4.27;2.97;;;15.10;98.00;;;;;;5385362;26;20523;-61
2024/04/15 06:49:55;;;;;;;4.50;2.70;;;15.10;98.00;;;;;;5416188;26;20471;-60
2024/04/15 06:52:27;;;;;;;4.27;2.90;;;15.10;98.00;;;;;;5416174;26;20550;-61
2024/04/15 06:54:54;;;;;;;8.80;2.90;;;15.10;98.00;;;;;;5416269;26;20455;-60
2024/04/15 06:57:23;;;;;;;5.83;2.90;;;15.20;98.00;;;;;;5415872;26;20859;-61
2024/04/15 06:59:50;;;;;;;14.20;3.30;;;15.10;98.00;;;;;;5416268;26;20832;-60
2024/04/15 07:02:21;;;;;;;5.00;2.93;;;15.10;98.00;;;;;;5415835;26;20518;-60
2024/04/15 07:04:50;;;;;;;4.50;2.90;;;15.10;98.00;;;;;;5386509;26;20605;-59
2024/04/15 07:07:20;;;;;;;4.13;2.80;;;15.20;98.00;;;;;;5415754;26;20454;-59
2024/04/15 07:09:50;;;;;;;5.23;3.27;;;15.10;98.00;;;;;;5416384;26;21032;-61
2024/04/15 07:12:19;;;;;;;4.10;2.73;;;15.20;98.00;;;;;;5415841;26;20806;-61
2024/04/15 07:14:46;;;;;;;4.67;2.90;;;15.20;98.00;;;;;;5415955;26;20462;-60
2024/04/15 07:17:14;;;;;;;4.77;2.93;;;15.20;98.00;;;;;;5416029;26;20462;-62
2024/04/15 07:19:40;;;;;;;5.73;3.00;;;15.20;98.00;;;;;;5385428;26;20793;-60
2024/04/15 07:22:09;;;;;;;8.37;3.00;;;15.20;98.00;;;;;;5415587;26;20443;-60
2024/04/15 07:24:35;;;;;;;4.07;2.87;;;15.30;98.00;;;;;;5385402;26;20509;-60
2024/04/15 07:27:08;;;;;;;6.23;3.20;;;15.20;98.00;;;;;;5414869;26;20509;-60
2024/04/15 07:29:35;;;;;;;5.40;3.17;;;15.10;98.00;;;;;;5385426;26;20502;-61
2024/04/15 07:32:05;;;;;;;6.67;2.70;;;15.00;98.00;;;;;;5415520;26;20467;-60
2024/04/15 07:34:31;;;;;;;6.13;3.20;;;15.00;98.00;;;;;;5384380;26;21026;-60
2024/04/15 07:37:01;;;;;;;6.20;3.47;;;15.10;98.00;;;;;;5415503;26;20492;-62
2024/04/15 07:39:27;;;;;;;7.50;3.43;;;15.00;98.00;;;;;;5416056;26;20576;-60
2024/04/15 07:41:56;;;;;;;5.23;2.87;;;14.80;98.00;;;;;;5416042;26;20502;-60
2024/04/15 07:44:25;;;;;;;8.43;3.43;;;14.70;98.00;;;;;;5414803;26;20523;-60
2024/04/15 07:46:55;;;;;;;8.33;3.17;;;14.70;98.00;;;;;;5403917;26;20477;-60
2024/04/15 07:49:21;;;;;;;5.77;2.80;;;14.70;98.00;;;;;;5414550;26;20492;-63
2024/04/15 07:51:50;;;;;;;5.50;3.00;;;14.60;98.00;;;;;;5414274;26;20482;-60
2024/04/15 07:54:16;;;;;;;5.63;3.37;;;14.60;98.00;;;;;;5415365;26;20590;-60
2024/04/15 07:56:45;;;;;;;6.87;3.80;;;14.60;98.00;;;;;;5415205;26;21045;-60
2024/04/15 07:59:11;;;;;;;8.07;3.00;;;14.70;98.00;;;;;;5415003;26;21000;-61
2024/04/15 08:01:42;;;;;;;4.43;3.00;;;14.70;98.00;;;;;;5415328;26;20458;-62
2024/04/15 08:04:08;;;;;;;5.50;3.00;;;14.80;98.00;;;;;;5415245;26;20474;-60
2024/04/15 08:06:37;;;;;;;4.93;3.23;;;14.80;98.00;;;;;;5415419;26;20471;-60
2024/04/15 08:09:03;;;;;;;6.93;3.40;;;14.80;98.00;;;;;;5415182;26;20537;-62
2024/04/15 08:11:32;;;;;;;14.00;2.93;;;15.00;98.00;;;;;;5414292;26;20481;-59
2024/04/15 08:13:58;;;;;;;8.53;3.33;;;15.00;98.00;;;;;;5415257;26;20807;-58
2024/04/15 08:16:27;;;;;;;5.40;3.10;;;15.40;98.00;;;;;;5414665;26;20478;-59
2024/04/15 08:18:56;;;;;;;12.10;3.70;;;15.50;98.00;;;;;;5415409;26;20501;-61
2024/04/15 08:21:28;;;;;;;5.97;3.63;;;15.80;98.00;;;;;;5413859;26;20454;-59
2024/04/15 08:23:56;;;;;;;8.50;3.70;;;15.90;98.00;;;;;;5414956;26;20832;-59
2024/04/15 08:26:25;;;;;;;6.00;3.73;;;15.80;98.00;;;;;;5384132;26;20459;-59
2024/04/15 08:28:51;;;;;;;5.90;3.50;;;15.70;98.00;;;;;;5414902;26;20573;-59
2024/04/15 08:31:20;;;;;;;9.03;3.90;;;15.30;98.00;;;;;;5414769;26;20439;-60
2024/04/15 08:33:46;;;;;;;7.57;3.60;;;15.30;98.00;;;;;;5384044;26;20471;-61
2024/04/15 08:36:17;;;;;;;6.33;3.73;;;15.50;98.00;;;;;;5414499;26;20474;-60
2024/04/15 08:38:44;;;;;;;7.10;3.73;;;15.30;98.00;;;;;;5414707;26;20490;-60
2024/04/15 08:41:28;;;;;;;6.33;3.93;;;15.30;98.00;;;;;;5384123;26;20466;-59
2024/04/15 08:44:03;;;;;;;7.90;3.73;;;15.40;98.00;;;;;;5414494;26;20458;-61
2024/04/15 08:46:34;;;;;;;8.03;4.00;;;15.40;98.00;;;;;;5414571;26;21113;-61
2024/04/15 08:49:00;;;;;;;9.63;4.40;;;15.50;98.00;;;;;;5414715;26;20462;-60
2024/04/15 08:51:32;;;;;;;8.50;4.07;;;15.50;98.00;;;;;;5414494;26;20519;-59
2024/04/15 08:53:58;;;;;;;10.87;4.70;;;15.60;98.00;;;;;;5414335;26;21024;-65
2024/04/15 08:56:30;;;;;;;16.33;4.60;;;15.60;98.00;;;;;;5414362;26;20466;-61
2024/04/15 08:58:57;;;;;;;10.23;4.20;;;15.50;98.00;;;;;;5414212;26;20799;-60
2024/04/15 09:01:26;;;;;;;11.23;4.33;;;15.50;98.00;;;;;;5414435;26;20467;-61
2024/04/15 09:03:52;;;;;;;6.77;3.93;;;15.50;98.00;;;;;;5417383;26;20860;-60
2024/04/15 09:06:22;;;;;;;10.00;4.30;;;15.60;98.00;;;;;;5417246;26;20519;-60
2024/04/15 09:08:51;;;;;;;8.50;4.20;;;15.60;98.00;;;;;;5417700;26;20470;-59
2024/04/15 09:11:20;;;;;;;13.47;4.70;;;15.70;98.00;;;;;;5417146;26;20462;-59
2024/04/15 09:13:46;;;;;;;9.33;4.47;;;15.70;98.00;;;;;;5417417;26;20466;-60
2024/04/15 09:16:15;;;;;;;8.20;4.70;;;15.70;98.00;;;;;;5417625;26;20944;-59
2024/04/15 09:18:43;;;;;;;7.47;3.93;;;15.60;98.00;;;;;;5416966;26;20500;-61
2024/04/15 09:21:12;;;;;;;7.73;4.43;;;15.70;98.00;;;;;;5416844;26;20567;-59
2024/04/15 09:23:41;;;;;;;7.00;4.30;;;15.80;98.00;;;;;;5386551;26;20467;-58
2024/04/15 09:26:12;;;;;;;8.93;4.50;;;15.90;98.00;;;;;;5385775;26;20579;-60
2024/04/15 09:28:38;;;;;;;9.40;4.60;;;16.00;98.00;;;;;;5417478;26;21044;-60
2024/04/15 09:31:08;;;;;;;8.80;4.73;;;16.30;98.00;;;;;;5417298;26;20542;-60
2024/04/15 09:33:35;;;;;;;8.63;4.73;;;16.60;98.00;;;;;;5387101;26;20501;-59
2024/04/15 09:36:05;;;;;;;8.60;4.83;;;16.90;98.00;;;;;;5417153;26;20570;-60
2024/04/15 09:38:33;;;;;;;9.87;5.00;;;16.90;98.00;;;;;;5416846;26;20458;-61
2024/04/15 09:41:02;;;;;;;7.50;4.37;;;16.60;98.00;;;;;;5417002;26;20988;-61
2024/04/15 09:43:31;;;;;;;10.87;4.80;;;16.70;98.00;;;;;;5417344;26;20462;-59
2024/04/15 09:46:02;;;;;;;10.90;4.70;;;16.60;98.00;;;;;;5417353;26;20458;-58
2024/04/15 09:48:29;;;;;;;10.20;4.87;;;16.60;98.00;;;;;;5386450;26;20847;-59
2024/04/15 09:51:00;;;;;;;8.57;4.60;;;16.50;98.00;;;;;;5417339;26;20498;-61
2024/04/15 09:58:39;;;;;;;11.17;4.80;;;16.80;98.00;;;;;;5309998;26;21071;-59
2024/04/15 10:01:06;;;;;;;10.50;5.10;;;17.00;98.00;;;;;;5253866;27;20508;-59
2024/04/15 10:03:37;;;;;;;12.00;4.97;;;17.10;98.00;;;;;;5344315;21;20583;-60
2024/04/15 10:06:07;;;;;;;7.40;4.53;;;17.10;98.00;;;;;;5416741;26;20466;-59
2024/04/15 10:08:36;;;;;;;9.50;4.73;;;17.00;98.00;;;;;;5416845;26;20512;-58
2024/04/15 10:11:02;;;;;;;8.40;4.90;;;17.10;98.00;;;;;;5416075;26;20459;-58
2024/04/15 10:13:32;;;;;;;11.40;4.63;;;17.10;98.00;;;;;;5385009;26;20451;-58
2024/04/15 10:16:02;;;;;;;10.53;4.53;;;17.10;98.00;;;;;;5416880;26;20504;-58
2024/04/15 10:18:32;;;;;;;10.60;4.80;;;17.30;98.00;;;;;;5384568;26;21106;-59
2024/04/15 10:20:58;;;;;;;13.93;4.87;;;17.30;98.00;;;;;;5381344;26;20850;-60
2024/04/15 10:23:30;;;;;;;11.27;5.03;;;17.20;98.00;;;;;;5381373;26;20464;-58
2024/04/15 10:25:57;;;;;;;8.13;4.57;;;17.20;98.00;;;;;;5381232;26;20475;-59
2024/04/15 10:28:26;;;;;;;13.93;4.90;;;17.10;98.00;;;;;;5380499;26;20464;-58
2024/04/15 10:30:52;;;;;;;10.33;5.27;;;17.10;98.00;;;;;;5349716;26;20472;-60
2024/04/15 10:33:24;;;;;;;17.47;5.67;;;17.20;98.00;;;;;;5381090;26;20467;-59
2024/04/15 10:35:52;;;;;;;9.00;4.87;;;17.40;98.00;;;;;;5381320;26;20962;-58
2024/04/15 10:38:21;;;;;;;8.80;5.00;;;17.40;98.00;;;;;;5380638;26;21022;-60
2024/04/15 10:40:48;;;;;;;8.30;4.63;;;18.00;98.00;;;;;;5380877;26;20542;-59
2024/04/15 10:43:21;;;;;;;9.80;5.00;;;18.40;98.00;;;;;;5380803;26;20510;-60
2024/04/15 10:45:48;;;;;;;9.80;4.47;;;18.30;98.00;;;;;;5351667;26;20463;-60
2024/04/15 10:48:17;;;;;;;7.93;4.60;;;18.30;98.00;;;;;;5380677;26;20452;-59
2024/04/15 10:50:46;;;;;;;10.30;4.37;;;18.20;98.00;;;;;;5381226;26;20590;-60
2024/04/15 10:53:15;;;;;;;7.13;4.27;;;18.00;98.00;;;;;;5380706;26;20463;-60
2024/04/15 10:55:41;;;;;;;7.13;4.10;;;17.80;98.00;;;;;;5380943;26;20528;-60
2024/04/15 10:58:12;;;;;;;7.60;4.07;;;17.60;98.00;;;;;;5349632;26;20504;-59
2024/04/15 11:00:42;;;;;;;8.90;4.67;;;17.40;98.00;;;;;;5380842;26;20981;-59
2024/04/15 11:03:12;;;;;;;7.10;4.40;;;17.30;98.00;;;;;;5380685;26;20456;-59
2024/04/15 11:05:38;;;;;;;14.70;7.20;;;17.20;98.00;;;;;;5380906;26;20505;-60
2024/04/15 11:08:13;;;;;;;14.10;6.67;;;17.00;98.00;;;;;;5380625;26;20475;-60
2024/04/15 11:10:39;;;;;;;8.87;4.90;;;16.90;98.00;;;;;;5386020;26;20475;-61
2024/04/15 11:13:12;;;;;;;7.43;4.40;;;16.70;98.00;;;;;;5415859;26;20515;-60
2024/04/15 11:15:39;;;;;;;9.40;4.63;;;16.80;98.00;;;;;;5416149;26;20583;-61
2024/04/15 11:18:15;;;;;;;8.80;4.80;;;16.60;98.00;;;;;;5414443;26;21116;-59
2024/04/15 11:20:41;;;;;;;8.60;4.30;;;16.40;98.00;;;;;;5416357;26;20458;-59
2024/04/15 11:23:13;;;;;;;8.90;4.50;;;16.40;98.00;;;;;;5415916;26;20527;-59
2024/04/15 11:25:42;;;;;;;9.07;4.97;;;16.40;98.00;;;;;;5415630;26;20510;-59
2024/04/15 11:28:14;;;;;;;9.40;4.30;;;16.30;98.00;;;;;;5415683;26;20514;-59
2024/04/15 11:30:40;;;;;;;9.90;4.00;;;16.50;98.00;;;;;;5415901;26;20459;-60
2024/04/15 11:33:10;;;;;;;6.80;3.87;;;16.60;98.00;;;;;;5415845;26;21058;-59
2024/04/15 11:35:46;;;;;;;7.90;4.27;;;16.70;98.00;;;;;;5385094;26;20454;-58
2024/04/15 11:38:20;;;;;;;6.20;3.83;;;16.70;98.00;;;;;;5415839;26;20461;-59
2024/04/15 11:40:46;;;;;;;6.60;3.97;;;16.70;98.00;;;;;;5385574;26;20563;-59
2024/04/15 11:43:15;;;;;;;7.70;4.60;;;16.70;98.00;;;;;;5415785;26;20843;-58
2024/04/15 11:45:50;;;;;;;8.40;4.23;;;16.70;98.00;;;;;;5415822;26;20485;-59
2024/04/15 11:48:20;;;;;;;7.37;3.80;;;16.60;98.00;;;;;;5415817;26;20506;-59
2024/04/15 11:50:49;;;;;;;5.77;3.50;;;16.70;98.00;;;;;;5385958;26;20514;-59
2024/04/15 11:53:23;;;;;;;13.03;4.47;;;16.70;98.00;;;;;;5416010;26;20505;-61
2024/04/15 11:55:50;;;;;;;8.57;3.77;;;16.60;98.00;;;;;;5415330;26;20474;-59
2024/04/15 11:58:19;;;;;;;7.03;3.60;;;16.50;98.00;;;;;;5384200;26;20451;-59
2024/04/15 12:00:45;;;;;;;5.73;3.63;;;16.60;98.00;;;;;;5415569;26;20969;-58
2024/04/15 12:03:15;;;;;;;5.40;3.40;;;16.60;98.00;;;;;;5415262;26;20577;-60
2024/04/15 12:05:44;;;;;;;5.43;3.67;;;16.60;98.00;;;;;;5414933;26;20530;-58
2024/04/15 12:08:13;;;;;;;7.67;3.90;;;16.70;98.00;;;;;;5415177;26;20801;-59
2024/04/15 12:10:42;;;;;;;7.60;3.53;;;16.80;98.00;;;;;;5414921;26;20462;-59
2024/04/15 12:13:11;;;;;;;9.17;4.40;;;16.80;98.00;;;;;;5406430;26;20547;-59
2024/04/15 12:15:38;;;;;;;6.70;4.23;;;16.70;98.00;;;;;;5379670;26;21242;-59
2024/04/15 12:18:07;;;;;;;8.27;4.17;;;16.80;98.00;;;;;;5379596;26;20577;-59
2024/04/15 12:20:33;;;;;;;6.67;3.53;;;17.00;98.00;;;;;;5349443;26;20510;-60
2024/04/15 12:23:03;;;;;;;6.67;3.93;;;16.90;98.00;;;;;;5379337;26;20468;-61
2024/04/15 12:25:29;;;;;;;6.67;3.80;;;17.00;98.00;;;;;;5349534;26;21038;-59
2024/04/15 12:28:00;;;;;;;5.90;3.53;;;17.00;98.00;;;;;;5378777;26;20472;-58
2024/04/15 12:35:30;;;;;;;6.73;3.10;;;17.40;98.00;;;;;;5341008;26;20501;-59
2024/04/15 12:37:56;;;;;;;5.67;3.50;;;17.50;98.00;;;;;;5342362;26;20500;-59
2024/04/15 12:40:25;;;;;;;11.67;3.27;;;17.60;98.00;;;;;;5343939;26;20512;-59
2024/04/15 12:42:51;;;;;;;6.27;3.03;;;17.80;98.00;;;;;;5344253;26;20552;-58
2024/04/15 12:45:24;;;;;;;10.67;3.30;;;18.10;98.00;;;;;;5313944;26;20533;-58
2024/04/15 12:47:50;;;;;;;6.00;3.00;;;18.40;98.00;;;;;;5344579;26;20449;-59
2024/04/15 12:50:19;;;;;;;5.00;2.80;;;19.20;98.00;;;;;;5309478;26;20983;-61
2024/04/15 12:52:45;;;;;;;5.63;2.97;;;20.10;98.00;;;;;;5330682;26;20477;-58
2024/04/15 12:55:17;;;;;;;5.03;2.73;;;20.50;98.00;;;;;;5314050;26;20517;-58
2024/04/15 12:57:46;;;;;;;6.53;2.90;;;20.30;98.00;;;;;;5344012;26;20492;-58
2024/04/15 13:00:14;;;;;;;6.13;3.17;;;19.70;98.00;;;;;;5343790;26;20465;-58
2024/04/15 13:02:46;;;;;;;6.80;3.13;;;18.90;98.00;;;;;;5344535;26;20533;-58